aviador You're here:

CYZP Decoded Metar

SANDSPIT in BC, CANADA
Report Time2017-09-23 19:53:00
UTC Time2017-09-23 19:59:22
Flight Rules mvfr MVFR
Wind250° at 05 kt
W.Decomp.*RWY 30: 1.5 kt HW 4.8 kt LCW
W.Rank250° ranks 3
Current wind is below 250° avg. (9.5)
Visibility9999 m
Phenomena:N/A
Clouds:Scattered 022 Hf
Broken 027 Hf
Overcast 035 Hf
Expected CloudBase > 400 ft AGL from Temp-Dew spread
Ceiling2,700 ft
Temp16°C (ISA +1)
Dew Point15°C (94% RH)
AAT15.8°C
QNH1015 hPa
Density Alt302 ft
Elevation20 ft
Report Wrong Elevation
Raw Report
SPECI CYZP 231953Z AUTO 25005KT 9SM SCT022 BKN027 OVC035 16/15 A2996
RMK SLP148=

Extra information for CYZP:More info

Metar Taf Metar & Taf Last 4 Metars F.Rules Stats Wind Profile Meteogram Temp Stats Airport Information Weather charts Add Link Nearby VenuesMetar ALERT Operation Metar Decoded Social comments